Time;durP1;ratioP1;P1;durP2;ratioP2;P2;SDS_P1;SDS_P2;PMS_P1;PMS_P2;Temp;Humidity;BMP_temperature;BMP_pressure;BME280_temperature;BME280_humidity;BME280_pressure;Samples;Min_cycle;Max_cycle;Signal;HPM_P1;HPM_P2
2022/09/03 00:01:36;;;;;;;;;;;;;;;19.03;56.55;101151.25;4944750;28;19944;-61
2022/09/03 00:04:07;;;;;;;;;;;;;;;19.01;56.56;101156.75;4943397;28;19934;-61
2022/09/03 00:06:38;;;;;;;;;;;;;;;18.97;56.19;101150.19;4952322;28;19933;-61
2022/09/03 00:09:29;;;;;;;;;;;;;;;18.95;56.68;101147.75;4955688;28;19926;-61
2022/09/03 00:12:09;;;;;;;;;;;;;;;18.98;56.47;101149.19;4953419;28;19927;-61
2022/09/03 00:14:46;;;;;;;;;;;;;;;18.94;56.62;101143.41;4945188;28;19929;-61
2022/09/03 00:17:15;;;;;;;;;;;;;;;18.92;56.84;101141.97;4951304;28;19926;-62
2022/09/03 00:19:45;;;;;;;;;;;;;;;18.89;56.75;101147.66;4953676;28;19930;-61
2022/09/03 00:22:17;;;;;;;;;;;;;;;18.86;57.14;101142.75;4941914;28;20308;-59
2022/09/03 00:24:45;;;;;;;;;;;;;;;18.82;57.44;101154.75;4966120;28;19937;-61
2022/09/03 00:27:17;;;;;;;;;;;;;;;18.76;57.61;101143.88;4967587;28;20301;-61
2022/09/03 00:29:53;;;;;;;;;;;;;;;18.70;57.94;101136.69;4946187;28;19930;-61
2022/09/03 00:32:32;;;;;;;;;;;;;;;18.70;58.12;101139.34;4944881;28;20330;-61
2022/09/03 00:35:04;;;;;;;;;;;;;;;18.67;57.95;101144.22;4952161;28;20006;-62
2022/09/03 00:37:31;;;;;;;;;;;;;;;18.65;58.17;101146.25;4951382;28;19935;-59
2022/09/03 00:40:06;;;;;;;;;;;;;;;18.60;58.11;101144.13;4947643;28;20335;-61
2022/09/03 00:42:36;;;;;;;;;;;;;;;18.58;58.33;101154.97;4948593;28;19940;-61
2022/09/03 00:45:02;;;;;;;;;;;;;;;18.58;58.66;101154.13;4944030;28;19936;-61
2022/09/03 00:47:47;;;;;;;;;;;;;;;18.52;58.88;101146.94;4955135;28;19930;-61
2022/09/03 00:50:17;;;;;;;;;;;;;;;18.50;58.72;101154.28;4947852;28;20443;-63
2022/09/03 00:52:59;;;;;;;;;;;;;;;18.50;58.64;101141.00;4955539;28;19934;-61
2022/09/03 00:55:25;;;;;;;;;;;;;;;18.46;58.92;101147.69;4954261;28;19933;-61
2022/09/03 00:58:00;;;;;;;;;;;;;;;18.42;58.88;101138.47;4955004;28;20533;-61
2022/09/03 01:00:28;;;;;;;;;;;;;;;18.36;59.07;101142.69;4946591;28;19934;-61
2022/09/03 01:03:00;;;;;;;;;;;;;;;18.34;59.44;101145.53;4954433;28;19930;-61
2022/09/03 01:05:53;;;;;;;;;;;;;;;18.31;59.10;101132.66;4952933;28;19930;-61
2022/09/03 01:08:44;;;;;;;;;;;;;;;18.28;59.30;101134.88;4944447;28;20349;-61
2022/09/03 01:11:35;;;;;;;;;;;;;;;18.26;59.01;101139.53;4948564;28;19964;-60
2022/09/03 01:14:11;;;;;;;;;;;;;;;18.22;59.32;101138.28;4947899;28;19931;-61
2022/09/03 01:16:43;;;;;;;;;;;;;;;18.17;59.27;101137.03;4954411;28;19937;-60
2022/09/03 01:19:29;;;;;;;;;;;;;;;18.17;59.48;101139.69;4945955;28;19927;-61
2022/09/03 01:22:07;;;;;;;;;;;;;;;18.14;59.52;101148.00;4956262;28;20014;-59
2022/09/03 01:24:52;;;;;;;;;;;;;;;18.14;59.81;101149.84;4941855;28;19940;-61
2022/09/03 01:27:35;;;;;;;;;;;;;;;18.07;59.98;101147.13;4955834;28;20305;-60
2022/09/03 01:30:17;;;;;;;;;;;;;;;18.04;59.96;101149.34;4939574;28;19931;-61
2022/09/03 01:33:02;;;;;;;;;;;;;;;18.04;60.11;101149.34;4953978;28;20037;-60
2022/09/03 01:35:49;;;;;;;;;;;;;;;17.98;60.50;101150.91;4948478;28;19976;-61
2022/09/03 01:38:21;;;;;;;;;;;;;;;17.94;60.58;101149.63;4940651;28;19934;-61
2022/09/03 01:40:53;;;;;;;;;;;;;;;17.92;60.37;101149.00;4941321;28;19938;-61
2022/09/03 01:43:31;;;;;;;;;;;;;;;17.88;60.69;101150.38;4955406;28;19943;-61
2022/09/03 01:46:13;;;;;;;;;;;;;;;17.82;60.39;101146.59;4954680;28;19930;-61
2022/09/03 01:48:45;;;;;;;;;;;;;;;17.81;60.50;101146.78;4960253;28;19925;-61
2022/09/03 01:51:19;;;;;;;;;;;;;;;17.77;60.70;101144.50;4957454;28;20689;-61
2022/09/03 01:53:46;;;;;;;;;;;;;;;17.73;61.10;101150.38;4938373;28;19934;-60
2022/09/03 01:56:33;;;;;;;;;;;;;;;17.71;61.11;101150.53;4955649;28;19933;-61
2022/09/03 01:59:19;;;;;;;;;;;;;;;17.72;60.28;101149.56;4957726;28;19930;-61
2022/09/03 02:01:55;;;;;;;;;;;;;;;17.70;60.95;101156.88;4956116;28;19930;-61
2022/09/03 02:04:24;;;;;;;;;;;;;;;17.68;60.91;101142.97;4945571;28;19933;-61
2022/09/03 02:06:51;;;;;;;;;;;;;;;17.68;61.21;101142.97;4946330;28;19934;-60
2022/09/03 02:09:18;;;;;;;;;;;;;;;17.68;61.55;101147.44;4941297;28;19927;-61
2022/09/03 02:11:49;;;;;;;;;;;;;;;17.65;61.30;101155.78;4958839;28;19968;-61
2022/09/03 02:14:16;;;;;;;;;;;;;;;17.62;61.75;101149.03;4953026;28;19941;-61
2022/09/03 02:16:43;;;;;;;;;;;;;;;17.60;61.44;101153.66;4946902;28;19927;-61
2022/09/03 02:19:11;;;;;;;;;;;;;;;17.56;61.72;101147.09;4955559;28;19930;-60
2022/09/03 02:21:41;;;;;;;;;;;;;;;17.55;61.73;101148.91;4952505;28;20577;-61
2022/09/03 02:24:08;;;;;;;;;;;;;;;17.54;61.94;101154.41;4955672;28;19930;-61
2022/09/03 02:26:34;;;;;;;;;;;;;;;17.52;61.45;101151.13;4949462;28;19939;-61
2022/09/03 02:29:01;;;;;;;;;;;;;;;17.49;61.55;101154.97;4954268;28;19964;-60
2022/09/03 02:31:28;;;;;;;;;;;;;;;17.47;61.58;101146.38;4953073;28;19930;-61
2022/09/03 02:33:55;;;;;;;;;;;;;;;17.47;61.55;101146.38;4948328;28;19934;-61
2022/09/03 02:36:28;;;;;;;;;;;;;;;17.46;61.63;101150.00;4951643;28;20363;-61
2022/09/03 02:38:54;;;;;;;;;;;;;;;17.45;61.53;101145.72;4950361;28;19930;-60
2022/09/03 02:41:21;;;;;;;;;;;;;;;17.41;62.22;101143.66;4950286;28;19946;-61
2022/09/03 02:43:52;;;;;;;;;;;;;;;17.39;61.96;101147.28;4938788;28;19926;-61
2022/09/03 02:46:25;;;;;;;;;;;;;;;17.36;62.57;101145.00;4947572;28;20579;-60
2022/09/03 02:48:52;;;;;;;;;;;;;;;17.36;62.29;101152.13;4950819;28;19981;-61
2022/09/03 02:51:19;;;;;;;;;;;;;;;17.29;62.61;101148.56;4951140;28;20218;-61
2022/09/03 02:53:45;;;;;;;;;;;;;;;17.28;62.75;101144.28;4955322;28;19937;-61
2022/09/03 02:56:12;;;;;;;;;;;;;;;17.24;62.22;101141.16;4957156;28;19942;-61
2022/09/03 02:58:38;;;;;;;;;;;;;;;17.26;62.41;101140.97;4948488;28;20012;-61
2022/09/03 03:01:05;;;;;;;;;;;;;;;17.24;62.92;101138.50;4947437;28;20333;-61
2022/09/03 03:03:32;;;;;;;;;;;;;;;17.24;63.00;101146.47;4950378;28;19934;-61
2022/09/03 03:06:00;;;;;;;;;;;;;;;17.19;62.81;101144.38;4944200;28;20346;-61
2022/09/03 03:08:27;;;;;;;;;;;;;;;17.19;62.98;101138.25;4953536;28;19953;-61
2022/09/03 03:10:57;;;;;;;;;;;;;;;17.16;62.70;101128.00;4956053;28;19933;-61
2022/09/03 03:13:24;;;;;;;;;;;;;;;17.17;63.12;101129.63;4946461;28;19926;-61
2022/09/03 03:15:50;;;;;;;;;;;;;;;17.16;62.78;101134.13;4947261;28;19937;-61
2022/09/03 03:18:17;;;;;;;;;;;;;;;17.16;63.01;101128.81;4943234;28;19937;-61
2022/09/03 03:20:43;;;;;;;;;;;;;;;17.13;63.03;101129.19;4953443;28;19934;-61
2022/09/03 03:23:10;;;;;;;;;;;;;;;17.11;62.19;101128.56;4943802;28;20251;-59
2022/09/03 03:25:37;;;;;;;;;;;;;;;17.08;63.47;101130.75;4947284;28;19930;-61
2022/09/03 03:28:04;;;;;;;;;;;;;;;17.06;63.15;101130.91;4948934;28;20204;-61
2022/09/03 03:30:31;;;;;;;;;;;;;;;17.04;63.18;101129.47;4953279;28;19934;-61
2022/09/03 03:32:57;;;;;;;;;;;;;;;16.98;63.08;101128.34;4956951;28;19929;-60
2022/09/03 03:35:24;;;;;;;;;;;;;;;16.99;63.76;101130.81;4952147;28;19934;-61
2022/09/03 03:37:50;;;;;;;;;;;;;;;16.96;63.12;101136.47;4965247;28;19930;-61
2022/09/03 03:40:16;;;;;;;;;;;;;;;16.93;63.71;101138.66;4940572;28;19930;-60
2022/09/03 03:42:43;;;;;;;;;;;;;;;16.90;63.90;101128.44;4950397;28;19926;-62
2022/09/03 03:45:09;;;;;;;;;;;;;;;16.86;63.81;101127.97;4948608;28;19927;-61
2022/09/03 03:47:36;;;;;;;;;;;;;;;16.82;63.72;101126.69;4945057;28;19927;-61
2022/09/03 03:50:03;;;;;;;;;;;;;;;16.82;64.44;101136.44;4958708;28;19964;-60
2022/09/03 03:52:29;;;;;;;;;;;;;;;16.79;63.81;101127.81;4952518;28;19930;-61
2022/09/03 03:54:56;;;;;;;;;;;;;;;16.73;64.10;101128.53;4963211;28;19972;-61
2022/09/03 03:57:22;;;;;;;;;;;;;;;16.75;64.41;101129.19;4944208;28;19930;-61
2022/09/03 03:59:49;;;;;;;;;;;;;;;16.74;64.52;101130.19;4954176;28;19948;-60
2022/09/03 04:02:16;;;;;;;;;;;;;;;16.73;64.26;101128.53;4953733;28;20001;-61
2022/09/03 04:04:42;;;;;;;;;;;;;;;16.69;64.44;101118.50;4946976;28;19933;-61
2022/09/03 04:07:09;;;;;;;;;;;;;;;16.69;64.32;101121.97;4948393;28;19932;-61
2022/09/03 04:09:36;;;;;;;;;;;;;;;16.68;64.39;101120.31;4936131;28;19930;-61
2022/09/03 04:12:04;;;;;;;;;;;;;;;16.63;64.86;101121.88;4953869;28;19937;-61
2022/09/03 04:14:30;;;;;;;;;;;;;;;16.60;65.30;101120.38;4946090;28;19930;-61
2022/09/03 04:16:57;;;;;;;;;;;;;;;16.56;65.53;101119.94;4954688;28;20364;-60
2022/09/03 04:19:24;;;;;;;;;;;;;;;16.56;64.51;101124.38;4947258;28;20021;-61
2022/09/03 04:21:50;;;;;;;;;;;;;;;16.56;65.06;101122.59;4949203;28;20104;-61
2022/09/03 04:24:16;;;;;;;;;;;;;;;16.56;65.41;101117.28;4957295;28;19937;-60
2022/09/03 04:26:43;;;;;;;;;;;;;;;16.54;65.63;101123.75;4952246;28;19937;-61
2022/09/03 04:29:09;;;;;;;;;;;;;;;16.52;65.42;101117.81;4955329;28;20383;-59
2022/09/03 04:31:36;;;;;;;;;;;;;;;16.50;65.11;101117.16;4951534;28;19929;-60
2022/09/03 04:34:08;;;;;;;;;;;;;;;16.49;65.46;101118.19;4951836;28;19949;-61
2022/09/03 04:36:36;;;;;;;;;;;;;;;16.45;65.87;101114.25;4949651;28;19930;-60
2022/09/03 04:39:02;;;;;;;;;;;;;;;16.43;65.40;101116.25;4941980;28;19970;-60
2022/09/03 04:41:30;;;;;;;;;;;;;;;16.37;65.84;101118.59;4948190;28;19933;-60
2022/09/03 04:43:57;;;;;;;;;;;;;;;16.38;65.76;101109.63;4944146;28;19927;-61
2022/09/03 04:46:24;;;;;;;;;;;;;;;16.37;65.77;101115.13;4950859;28;19931;-61
2022/09/03 04:48:53;;;;;;;;;;;;;;;16.38;66.17;101111.47;4939825;28;19931;-61
2022/09/03 04:51:20;;;;;;;;;;;;;;;16.39;65.50;101113.94;4946042;28;20581;-61
2022/09/03 04:53:48;;;;;;;;;;;;;;;16.38;65.37;101112.28;4953542;28;20115;-61
2022/09/03 04:56:19;;;;;;;;;;;;;;;16.36;65.48;101121.41;4943863;28;19930;-61
2022/09/03 04:58:46;;;;;;;;;;;;;;;16.35;64.99;101117.94;4951920;28;20379;-61
2022/09/03 05:01:20;;;;;;;;;;;;;;;16.32;66.26;101107.69;4949037;28;19941;-60
2022/09/03 05:03:46;;;;;;;;;;;;;;;16.31;66.32;101118.47;4945594;28;19938;-61
2022/09/03 05:06:15;;;;;;;;;;;;;;;16.27;66.28;101123.28;4940832;28;19942;-61
2022/09/03 05:08:42;;;;;;;;;;;;;;;16.27;66.22;101125.09;4946244;28;19934;-61
2022/09/03 05:11:09;;;;;;;;;;;;;;;16.27;66.69;101115.34;4945878;28;19926;-61
2022/09/03 05:13:35;;;;;;;;;;;;;;;16.27;66.08;101117.16;4947033;28;20342;-61
2022/09/03 05:16:04;;;;;;;;;;;;;;;16.26;66.98;101120.81;4956156;28;19941;-61
2022/09/03 05:18:31;;;;;;;;;;;;;;;16.26;67.26;101124.28;4941109;28;19934;-60
2022/09/03 05:20:59;;;;;;;;;;;;;;;16.25;67.44;101117.34;4960837;28;20295;-59
2022/09/03 05:23:26;;;;;;;;;;;;;;;16.25;67.60;101124.44;4950064;28;19941;-61
2022/09/03 05:26:00;;;;;;;;;;;;;;;16.25;67.94;101135.03;4951023;28;19930;-60
2022/09/03 05:28:27;;;;;;;;;;;;;;;16.23;68.28;101129.09;4948902;28;20017;-60
2022/09/03 05:31:04;;;;;;;;;;;;;;;16.21;68.50;101138.06;4949427;28;19938;-61
2022/09/03 05:33:35;;;;;;;;;;;;;;;16.20;68.54;101130.28;4953554;28;19930;-60
2022/09/03 05:36:03;;;;;;;;;;;;;;;16.20;67.23;101127.63;4943318;28;20455;-60
2022/09/03 05:38:29;;;;;;;;;;;;;;;16.20;67.28;101117.88;4959266;28;20025;-61
2022/09/03 05:40:57;;;;;;;;;;;;;;;16.21;67.49;101114.25;4939385;28;20306;-60
2022/09/03 05:43:24;;;;;;;;;;;;;;;16.18;67.97;101121.69;4952969;28;20549;-61
2022/09/03 05:45:50;;;;;;;;;;;;;;;16.21;67.94;101118.72;4940184;28;20002;-61
2022/09/03 05:48:16;;;;;;;;;;;;;;;16.23;67.92;101129.09;4949234;28;19985;-61
2022/09/03 05:50:42;;;;;;;;;;;;;;;16.28;67.30;101126.75;4951382;28;19960;-60
2022/09/03 05:53:09;;;;;;;;;;;;;;;16.30;67.03;101120.28;4949426;28;19926;-61
2022/09/03 05:55:35;;;;;;;;;;;;;;;16.36;66.60;101124.03;4960198;28;19937;-61
2022/09/03 05:58:01;;;;;;;;;;;;;;;16.37;66.99;101123.06;4941234;28;20154;-61
2022/09/03 06:00:28;;;;;;;;;;;;;;;16.39;67.12;101123.72;4955494;28;19953;-60
2022/09/03 06:02:54;;;;;;;;;;;;;;;16.41;67.40;101124.34;4960087;28;19926;-61
2022/09/03 06:05:20;;;;;;;;;;;;;;;16.46;66.40;101127.28;4959836;28;19962;-61
2022/09/03 06:07:48;;;;;;;;;;;;;;;16.49;66.03;101131.41;4949915;28;19927;-60
2022/09/03 06:10:16;;;;;;;;;;;;;;;16.48;67.14;101127.09;4955331;28;19934;-60
2022/09/03 06:12:44;;;;;;;;;;;;;;;16.52;66.51;101133.69;4947548;28;19927;-60
2022/09/03 06:15:12;;;;;;;;;;;;;;;16.54;67.55;101135.19;4941385;28;20429;-59
2022/09/03 06:17:38;;;;;;;;;;;;;;;16.59;66.81;101127.50;4947679;28;19935;-61
2022/09/03 06:20:05;;;;;;;;;;;;;;;16.61;66.37;101127.31;4946087;28;19935;-61
2022/09/03 06:22:31;;;;;;;;;;;;;;;16.65;66.53;101130.44;4951287;28;19946;-61
2022/09/03 06:24:57;;;;;;;;;;;;;;;16.62;67.43;101123.66;4948342;28;19940;-61
2022/09/03 06:27:24;;;;;;;;;;;;;;;16.69;66.44;101129.09;4941466;28;20384;-61
2022/09/03 06:29:50;;;;;;;;;;;;;;;16.69;66.37;101132.56;4945548;28;19953;-61
2022/09/03 06:32:16;;;;;;;;;;;;;;;16.70;65.68;101128.91;4946124;28;19930;-61
2022/09/03 06:34:43;;;;;;;;;;;;;;;16.79;65.96;101132.31;4956971;28;19941;-61
2022/09/03 06:37:09;;;;;;;;;;;;;;;16.80;66.85;101132.13;4941634;28;20413;-61
2022/09/03 06:39:35;;;;;;;;;;;;;;;16.83;67.06;101130.16;4954976;28;19930;-61
2022/09/03 06:42:01;;;;;;;;;;;;;;;16.83;67.45;101135.44;4943225;28;19930;-61
2022/09/03 06:44:28;;;;;;;;;;;;;;;16.83;66.98;101141.56;4949213;28;19937;-61
2022/09/03 06:46:54;;;;;;;;;;;;;;;16.84;66.84;101134.44;4952297;28;19937;-61
2022/09/03 06:49:21;;;;;;;;;;;;;;;16.91;66.55;101140.66;4948861;28;19930;-61
2022/09/03 06:51:47;;;;;;;;;;;;;;;16.90;66.50;101131.91;4948038;28;19933;-61
2022/09/03 06:54:14;;;;;;;;;;;;;;;17.06;63.59;101133.56;4944715;28;19937;-61
2022/09/03 06:56:41;;;;;;;;;;;;;;;17.13;63.47;101126.53;4957645;28;19927;-61
2022/09/03 06:59:11;;;;;;;;;;;;;;;17.23;65.46;101131.56;4952110;28;20306;-61
2022/09/03 07:01:40;;;;;;;;;;;;;;;17.29;65.86;101125.53;4957847;28;20041;-60
2022/09/03 07:04:11;;;;;;;;;;;;;;;17.32;63.64;101129.63;4952978;28;19938;-61
2022/09/03 07:06:39;;;;;;;;;;;;;;;17.36;66.00;101130.91;4950214;28;20080;-60
2022/09/03 07:09:06;;;;;;;;;;;;;;;17.40;64.96;101132.19;4954096;28;19937;-60
2022/09/03 07:11:34;;;;;;;;;;;;;;;17.47;66.34;101137.59;4943356;28;19930;-61
2022/09/03 07:14:02;;;;;;;;;;;;;;;17.47;66.26;101142.91;4955259;28;20296;-61
2022/09/03 07:16:31;;;;;;;;;;;;;;;17.49;66.10;101139.06;4951723;28;20542;-60
2022/09/03 07:18:59;;;;;;;;;;;;;;;17.58;64.23;101137.09;4947642;28;20128;-61
2022/09/03 07:21:27;;;;;;;;;;;;;;;17.70;63.92;101140.97;4948428;28;19931;-61
2022/09/03 07:23:54;;;;;;;;;;;;;;;17.77;64.00;101138.38;4960477;28;19930;-61
2022/09/03 07:26:24;;;;;;;;;;;;;;;17.84;63.39;101141.13;4949947;28;19930;-59
2022/09/03 07:28:53;;;;;;;;;;;;;;;17.91;65.06;101142.03;4949887;28;20017;-61
2022/09/03 07:31:24;;;;;;;;;;;;;;;17.95;64.24;101136.19;4951793;28;20029;-60
2022/09/03 07:33:54;;;;;;;;;;;;;;;18.01;65.93;101139.06;4942110;28;20021;-61
2022/09/03 07:36:21;;;;;;;;;;;;;;;18.02;65.74;101136.25;4951856;28;19934;-61
2022/09/03 07:38:47;;;;;;;;;;;;;;;18.05;65.62;101140.34;4949939;28;19930;-61
2022/09/03 07:41:14;;;;;;;;;;;;;;;18.15;64.47;101135.53;4957095;28;20358;-61
2022/09/03 07:43:52;;;;;;;;;;;;;;;18.30;61.52;101130.19;4966708;28;19950;-61
2022/09/03 07:46:23;;;;;;;;;;;;;;;18.37;63.17;101134.56;4949912;28;20330;-63
2022/09/03 07:48:51;;;;;;;;;;;;;;;18.45;62.27;101127.47;4945970;28;20030;-61
2022/09/03 07:51:18;;;;;;;;;;;;;;;18.46;63.17;101131.75;4943216;28;19931;-61
2022/09/03 07:53:45;;;;;;;;;;;;;;;18.54;62.27;101126.31;4957087;28;19961;-61
2022/09/03 07:56:12;;;;;;;;;;;;;;;18.62;62.41;101128.84;4951221;28;19933;-60
2022/09/03 07:58:40;;;;;;;;;;;;;;;18.69;62.47;101126.25;4950993;28;19935;-60
2022/09/03 08:01:07;;;;;;;;;;;;;;;18.76;61.78;101127.13;4944714;28;19933;-62
2022/09/03 08:03:37;;;;;;;;;;;;;;;18.83;62.41;101132.50;4943439;28;19934;-62
2022/09/03 08:06:06;;;;;;;;;;;;;;;19.04;60.19;101134.28;4958311;28;20450;-62
2022/09/03 08:08:35;;;;;;;;;;;;;;;19.10;61.42;101129.00;4957440;28;19930;-64
2022/09/03 08:11:11;;;;;;;;;;;;;;;19.20;62.22;101120.69;4954122;28;20383;-62
2022/09/03 08:14:00;;;;;;;;;;;;;;;19.39;60.20;101132.44;4939238;28;19930;-60
2022/09/03 08:16:30;;;;;;;;;;;;;;;19.62;59.61;101121.50;4949382;28;20276;-60
2022/09/03 08:18:57;;;;;;;;;;;;;;;19.84;59.57;101127.53;4946338;28;20014;-61
2022/09/03 08:21:25;;;;;;;;;;;;;;;20.11;57.87;101127.59;4951928;28;19930;-61
2022/09/03 08:23:53;;;;;;;;;;;;;;;20.37;57.92;101132.16;4960404;28;20366;-60
2022/09/03 08:26:20;;;;;;;;;;;;;;;20.64;56.22;101133.03;4941895;28;19937;-61
2022/09/03 08:28:47;;;;;;;;;;;;;;;20.93;55.88;101136.25;4955955;28;20491;-60
2022/09/03 08:31:15;;;;;;;;;;;;;;;21.16;55.78;101135.81;4942453;28;19934;-60
2022/09/03 08:33:43;;;;;;;;;;;;;;;21.40;55.02;101131.63;4952983;28;20290;-60
2022/09/03 08:36:14;;;;;;;;;;;;;;;21.64;54.40;101132.81;4944066;28;19926;-60
2022/09/03 08:38:42;;;;;;;;;;;;;;;21.92;53.53;101134.31;4949772;28;19936;-60
2022/09/03 08:41:15;;;;;;;;;;;;;;;22.07;53.54;101129.50;4946211;28;19930;-59
2022/09/03 08:43:51;;;;;;;;;;;;;;;22.28;52.42;101130.22;4950123;28;19930;-60
2022/09/03 08:46:17;;;;;;;;;;;;;;;22.47;51.97;101136.47;4947595;28;19937;-61
2022/09/03 08:48:46;;;;;;;;;;;;;;;22.68;51.85;101132.59;4942055;28;19930;-61
2022/09/03 08:51:15;;;;;;;;;;;;;;;22.86;51.81;101135.28;4952195;28;19926;-61
2022/09/03 08:53:47;;;;;;;;;;;;;;;22.97;50.58;101130.25;4946614;28;19930;-61
2022/09/03 08:56:30;;;;;;;;;;;;;;;23.17;50.85;101135.41;4946665;28;20164;-61
2022/09/03 08:58:56;;;;;;;;;;;;;;;23.36;50.39;101137.06;4941186;28;19930;-61
2022/09/03 09:01:41;;;;;;;;;;;;;;;23.52;49.64;101132.13;4960974;28;19937;-61
2022/09/03 09:04:14;;;;;;;;;;;;;;;23.62;49.08;101129.75;4963428;28;19930;-61
2022/09/03 09:06:46;;;;;;;;;;;;;;;23.67;48.96;101127.22;4951963;28;20445;-61
2022/09/03 09:09:31;;;;;;;;;;;;;;;23.83;48.96;101118.56;4952076;28;19952;-61
2022/09/03 09:12:22;;;;;;;;;;;;;;;24.01;48.43;101123.06;4951852;28;20398;-61
2022/09/03 09:15:07;;;;;;;;;;;;;;;24.15;48.50;101123.69;4948809;28;20593;-61
2022/09/03 09:17:54;;;;;;;;;;;;;;;24.43;48.15;101120.34;4943550;28;19936;-61
2022/09/03 09:20:28;;;;;;;;;;;;;;;24.52;47.57;101126.25;4949637;28;19930;-61
2022/09/03 09:23:00;;;;;;;;;;;;;;;24.70;47.49;101121.78;4939759;28;19934;-60
2022/09/03 09:25:26;;;;;;;;;;;;;;;24.86;48.36;101116.56;4954642;28;19930;-61
2022/09/03 09:27:57;;;;;;;;;;;;;;;24.98;47.07;101118.41;4944113;28;19937;-62
2022/09/03 09:30:25;;;;;;;;;;;;;;;25.07;47.03;101114.31;4946217;28;19935;-61
2022/09/03 09:32:51;;;;;;;;;;;;;;;25.24;46.46;101114.41;4955393;28;19930;-62
2022/09/03 09:35:18;;;;;;;;;;;;;;;25.48;46.85;101119.72;4941024;28;20391;-62
2022/09/03 09:37:45;;;;;;;;;;;;;;;25.63;46.53;101107.41;4956639;28;19952;-62
2022/09/03 09:40:21;;;;;;;;;;;;;;;25.77;46.28;101116.00;4946918;28;19930;-62
2022/09/03 09:42:48;;;;;;;;;;;;;;;25.98;45.82;101117.22;4959525;28;20386;-62
2022/09/03 09:45:14;;;;;;;;;;;;;;;26.20;44.99;101119.19;4941414;28;19927;-62
2022/09/03 09:47:41;;;;;;;;;;;;;;;26.35;45.40;101118.63;4956932;28;19952;-61
2022/09/03 09:50:16;;;;;;;;;;;;;;;26.49;44.78;101130.69;4947737;28;19930;-62
2022/09/03 09:53:13;;;;;;;;;;;;;;;26.69;45.23;101121.31;4956362;28;19963;-62
2022/09/03 09:55:48;;;;;;;;;;;;;;;26.77;43.91;101123.59;4948752;28;19934;-62
2022/09/03 09:58:18;;;;;;;;;;;;;;;26.90;44.16;101114.38;4943955;28;19930;-62
2022/09/03 10:00:59;;;;;;;;;;;;;;;27.08;44.27;101115.94;4952748;28;19934;-61
2022/09/03 10:03:28;;;;;;;;;;;;;;;27.26;43.38;101114.84;4952978;28;20481;-62
2022/09/03 10:06:52;;;;;;;;;;;;;;;27.46;43.13;101122.34;4954106;28;20032;-62
2022/09/03 10:08:49;;;;;;;;;;;;;;;27.59;42.92;101116.56;4945635;28;20484;-62
2022/09/03 10:11:17;;;;;;;;;;;;;;;27.71;42.50;101111.03;4950983;28;19927;-62
2022/09/03 10:13:46;;;;;;;;;;;;;;;27.80;41.76;101118.41;4941355;28;19937;-61
2022/09/03 10:16:28;;;;;;;;;;;;;;;28.04;42.43;101115.44;4946952;28;20481;-62
2022/09/03 10:19:09;;;;;;;;;;;;;;;28.24;42.61;101112.09;4952436;28;19930;-62
2022/09/03 10:21:36;;;;;;;;;;;;;;;28.40;41.66;101105.75;4956827;28;19944;-62
2022/09/03 10:24:14;;;;;;;;;;;;;;;28.33;40.73;101105.16;4954796;28;19937;-62
2022/09/03 10:26:43;;;;;;;;;;;;;;;28.57;40.54;101102.09;4948109;28;20477;-62
2022/09/03 10:29:10;;;;;;;;;;;;;;;28.74;40.89;101108.16;4954731;28;19926;-61
2022/09/03 10:31:44;;;;;;;;;;;;;;;28.89;40.39;101104.72;4947707;28;19934;-63
2022/09/03 10:34:10;;;;;;;;;;;;;;;29.09;42.18;101098.59;4950659;28;20424;-62
2022/09/03 10:36:59;;;;;;;;;;;;;;;29.19;40.62;101108.66;4951791;28;20283;-62
2022/09/03 10:39:35;;;;;;;;;;;;;;;29.22;39.48;101099.22;4955188;28;19931;-62
2022/09/03 10:42:11;;;;;;;;;;;;;;;29.46;40.42;101099.56;4952145;28;20344;-62
2022/09/03 10:44:56;;;;;;;;;;;;;;;29.54;39.95;101094.47;4951213;28;19926;-62
2022/09/03 10:47:34;;;;;;;;;;;;;;;29.77;41.17;101095.88;4951107;28;19927;-63
2022/09/03 10:50:22;;;;;;;;;;;;;;;29.89;38.66;101092.09;4947118;28;19948;-62
2022/09/03 10:52:56;;;;;;;;;;;;;;;30.00;40.46;101091.00;4952914;28;19969;-63
2022/09/03 10:55:23;;;;;;;;;;;;;;;30.21;39.21;101094.53;4950957;28;19930;-62
2022/09/03 10:58:04;;;;;;;;;;;;;;;30.26;38.06;101094.50;4945748;28;20399;-65
2022/09/03 11:00:33;;;;;;;;;;;;;;;30.43;38.40;101094.25;4948119;28;19933;-62
2022/09/03 11:03:14;;;;;;;;;;;;;;;30.47;40.36;101089.91;4953651;28;19931;-63
2022/09/03 11:05:59;;;;;;;;;;;;;;;30.57;38.50;101091.00;4948159;28;20571;-63
2022/09/03 11:08:36;;;;;;;;;;;;;;;30.77;38.65;101093.63;4959050;28;20010;-62
2022/09/03 11:11:21;;;;;;;;;;;;;;;30.89;39.10;101091.47;4945406;28;19936;-62
2022/09/03 11:13:52;;;;;;;;;;;;;;;31.05;37.53;101094.09;4952248;28;20306;-63
2022/09/03 11:16:24;;;;;;;;;;;;;;;31.16;39.87;101086.75;4947701;28;19926;-63
2022/09/03 11:18:56;;;;;;;;;;;;;;;31.14;37.27;101084.31;4951548;28;20380;-62
2022/09/03 11:21:25;;;;;;;;;;;;;;;31.23;37.80;101090.78;4959560;28;20302;-63
2022/09/03 11:23:59;;;;;;;;;;;;;;;31.25;37.61;101077.75;4950158;28;19926;-62
2022/09/03 11:26:26;;;;;;;;;;;;;;;31.43;38.29;101087.16;4950311;28;19930;-63
2022/09/03 11:28:59;;;;;;;;;;;;;;;31.49;38.04;101077.13;4948668;28;19926;-62
2022/09/03 11:31:45;;;;;;;;;;;;;;;31.69;37.71;101076.97;4950463;28;20056;-62
2022/09/03 11:34:13;;;;;;;;;;;;;;;31.90;38.72;101066.78;4944012;28;19941;-63
2022/09/03 11:36:48;;;;;;;;;;;;;;;31.93;37.34;101062.66;4958228;28;19930;-64
2022/09/03 11:39:32;;;;;;;;;;;;;;;32.01;38.43;101069.41;4945725;28;20367;-63
2022/09/03 11:42:05;;;;;;;;;;;;;;;32.15;37.49;101069.56;4949922;28;19936;-63
2022/09/03 11:44:42;;;;;;;;;;;;;;;32.19;36.18;101065.22;4957407;28;19930;-62
2022/09/03 11:47:23;;;;;;;;;;;;;;;32.17;36.91;101059.22;4948713;28;19937;-62
2022/09/03 11:50:03;;;;;;;;;;;;;;;32.23;36.52;101060.81;4953497;28;19930;-64
2022/09/03 11:52:31;;;;;;;;;;;;;;;31.96;37.30;101064.03;4948078;28;19930;-62
2022/09/03 11:54:57;;;;;;;;;;;;;;;31.83;36.40;101060.84;4957059;28;20778;-63
2022/09/03 11:57:29;;;;;;;;;;;;;;;32.12;36.50;101063.63;4944098;28;19946;-64
2022/09/03 12:00:12;;;;;;;;;;;;;;;32.16;36.06;101053.00;4955813;28;19934;-63
2022/09/03 12:02:44;;;;;;;;;;;;;;;32.15;35.66;101064.13;4946783;28;19926;-63
2022/09/03 12:05:13;;;;;;;;;;;;;;;32.34;36.10;101053.38;4953124;28;19930;-63
2022/09/03 12:07:50;;;;;;;;;;;;;;;32.26;36.38;101057.53;4947203;28;19934;-63
2022/09/03 12:10:24;;;;;;;;;;;;;;;32.39;37.15;101053.34;4954089;28;19945;-63
2022/09/03 12:12:52;;;;;;;;;;;;;;;32.39;37.58;101058.75;4950712;28;20397;-63
2022/09/03 12:15:21;;;;;;;;;;;;;;;32.56;36.31;101052.88;4943909;28;19925;-63
2022/09/03 12:18:17;;;;;;;;;;;;;;;32.62;35.93;101052.56;4955942;28;19927;-64
2022/09/03 12:20:39;;;;;;;;;;;;;;;32.63;36.13;101058.78;4943883;28;19937;-63
2022/09/03 12:23:06;;;;;;;;;;;;;;;32.83;35.97;101058.56;4954413;28;19937;-63
2022/09/03 12:25:33;;;;;;;;;;;;;;;32.96;35.46;101050.78;4953692;28;19926;-66
2022/09/03 12:28:02;;;;;;;;;;;;;;;32.89;35.87;101057.41;4948600;28;19930;-63
2022/09/03 12:30:29;;;;;;;;;;;;;;;32.81;35.59;101059.94;4945687;28;19930;-63
2022/09/03 12:33:04;;;;;;;;;;;;;;;32.89;36.10;101056.56;4957877;28;19965;-61
2022/09/03 12:35:30;;;;;;;;;;;;;;;32.93;35.69;101057.59;4963419;28;19930;-63
2022/09/03 12:38:22;;;;;;;;;;;;;;;32.94;36.08;101048.38;4951953;28;19930;-63
2022/09/03 12:40:48;;;;;;;;;;;;;;;32.96;35.97;101051.59;4948842;28;19937;-63
2022/09/03 12:43:34;;;;;;;;;;;;;;;33.10;35.71;101051.72;4949555;28;19927;-63
2022/09/03 12:46:05;;;;;;;;;;;;;;;33.30;38.06;101045.16;4953946;28;19952;-63
2022/09/03 12:48:36;;;;;;;;;;;;;;;33.33;36.02;101057.38;4942466;28;19930;-64
2022/09/03 12:51:08;;;;;;;;;;;;;;;33.37;35.82;101055.69;4955323;28;19930;-63
2022/09/03 12:53:55;;;;;;;;;;;;;;;33.29;35.51;101049.81;4950956;28;19939;-63
2022/09/03 12:56:21;;;;;;;;;;;;;;;33.16;35.81;101045.09;4942576;28;19931;-64